Time;durP1;ratioP1;P1;durP2;ratioP2;P2;SDS_P1;SDS_P2;PMS_P1;PMS_P2;Temp;Humidity;BMP_temperature;BMP_pressure;BME280_temperature;BME280_humidity;BME280_pressure;Samples;Min_cycle;Max_cycle;Signal;HPM_P1;HPM_P2
2022/02/05 00:02:31;;;;;;;5.55;3.80;;;3.40;99.90;;;;;;5026565;28;20480;-68
2022/02/05 00:04:59;;;;;;;;;;;3.40;99.90;;;;;;5027581;28;20049;-69
2022/02/05 00:07:28;;;;;;;6.35;3.70;;;3.30;99.90;;;;;;5007608;28;19921;-69
2022/02/05 00:10:16;;;;;;;5.90;3.75;;;3.30;99.90;;;;;;5060892;28;20123;-69
2022/02/05 00:15:32;;;;;;;5.78;3.60;;;3.20;99.90;;;;;;5108574;28;20058;-68
2022/02/05 00:40:15;;;;;;;4.50;2.72;;;3.00;99.90;;;;;;5105246;28;20048;-68
2022/02/05 00:42:43;;;;;;;4.95;2.80;;;3.00;99.90;;;;;;5104788;28;20094;-69
2022/02/05 00:45:11;;;;;;;5.38;3.08;;;2.90;99.90;;;;;;5112945;28;20489;-69
2022/02/05 00:47:44;;;;;;;10.75;3.30;;;2.80;99.90;;;;;;5113558;28;20075;-68
2022/02/05 00:50:18;;;;;;;5.45;3.50;;;2.80;99.90;;;;;;5077387;28;20043;-69
2022/02/05 00:52:57;;;;;;;6.50;3.80;;;2.70;99.90;;;;;;5112643;28;20587;-69
2022/02/05 00:55:28;;;;;;;7.15;3.40;;;2.70;99.90;;;;;;5096138;28;20556;-68
2022/02/05 00:58:02;;;;;;;6.00;3.22;;;2.70;99.90;;;;;;5102267;28;20551;-69
2022/02/05 01:00:35;;;;;;;8.13;4.03;;;2.70;99.90;;;;;;5094699;28;20057;-69
2022/02/05 01:03:04;;;;;;;5.63;3.67;;;2.60;99.90;;;;;;5113218;28;20058;-69
2022/02/05 01:05:35;;;;;;;7.40;3.25;;;2.70;99.90;;;;;;5095305;28;20035;-68
2022/02/05 01:08:03;;;;;;;5.93;2.83;;;2.70;99.90;;;;;;5114693;28;20458;-69
2022/02/05 01:10:31;;;;;;;6.20;3.05;;;2.70;99.90;;;;;;5095298;28;20580;-69
2022/02/05 01:13:06;;;;;;;10.07;3.30;;;2.70;99.90;;;;;;5095682;28;20046;-68
2022/02/05 01:15:41;;;;;;;5.95;3.00;;;2.70;99.90;;;;;;5094957;28;20475;-69
2022/02/05 01:18:12;;;;;;;7.50;3.22;;;2.60;99.90;;;;;;5095984;28;20056;-69
2022/02/05 01:23:35;;;;;;;5.32;2.92;;;2.40;99.90;;;;;;5112729;28;20055;-69
2022/02/05 01:26:13;;;;;;;5.68;3.25;;;2.40;99.90;;;;;;5112749;28;20546;-70
2022/02/05 01:28:42;;;;;;;7.63;3.58;;;2.30;99.90;;;;;;5112510;28;20494;-69
2022/02/05 01:31:10;;;;;;;7.75;3.33;;;2.20;99.90;;;;;;5093005;28;20039;-69
2022/02/05 01:33:56;;;;;;;4.85;2.95;;;2.20;99.90;;;;;;5110915;28;20568;-69
2022/02/05 02:12:04;;;;;;;8.23;3.55;;;1.80;99.90;;;;;;5027379;28;20162;-69
2022/02/05 02:18:05;;;;;;;5.43;3.30;;;1.90;99.90;;;;;;5107028;28;20097;-69
2022/02/05 02:27:57;;;;;;;6.15;2.90;;;1.90;99.90;;;;;;5093127;28;20717;-69
2022/02/05 02:30:29;;;;;;;7.00;3.17;;;1.90;99.90;;;;;;5083958;28;20047;-69
2022/02/05 02:33:17;;;;;;;7.93;2.92;;;1.80;99.90;;;;;;5088112;28;20054;-68
2022/02/05 02:35:48;;;;;;;6.32;3.10;;;1.80;99.90;;;;;;5092553;28;20059;-68
2022/02/05 02:38:19;;;;;;;7.53;3.25;;;1.80;99.90;;;;;;5092502;28;20035;-68
2022/02/05 02:41:00;;;;;;;6.43;3.07;;;1.80;99.90;;;;;;5111319;28;20035;-68
2022/02/05 02:43:31;;;;;;;9.82;3.08;;;1.80;99.90;;;;;;5110997;28;20105;-68
2022/02/05 02:45:59;;;;;;;6.28;2.90;;;1.80;99.90;;;;;;5092563;28;20119;-67
2022/02/05 02:48:26;;;;;;;8.35;3.67;;;1.70;99.90;;;;;;5091953;28;20168;-69
2022/02/05 02:59:24;;;;;;;6.82;2.55;;;1.50;99.90;;;;;;5109765;28;20046;-68
2022/02/05 03:02:07;;;;;;;6.50;2.55;;;1.50;99.90;;;;;;5072612;28;20048;-68
2022/02/05 03:04:35;;;;;;;8.10;2.72;;;1.50;99.90;;;;;;5099870;28;20059;-67
2022/02/05 03:07:03;;;;;;;5.68;2.00;;;1.40;99.90;;;;;;5108005;28;20082;-67
2022/02/05 03:09:31;;;;;;;4.60;2.03;;;1.40;99.90;;;;;;5110472;28;20047;-69
2022/02/05 03:11:58;;;;;;;9.30;2.10;;;1.50;99.90;;;;;;5093421;28;20047;-69
2022/02/05 03:14:25;;;;;;;6.10;2.10;;;1.60;99.90;;;;;;5094849;28;20031;-68
2022/02/05 03:17:01;;;;;;;6.90;2.63;;;1.70;99.90;;;;;;5092141;28;20570;-68
2022/02/05 03:19:28;;;;;;;6.80;2.38;;;1.70;99.90;;;;;;5090869;28;20051;-69
2022/02/05 03:21:56;;;;;;;4.25;2.13;;;1.80;99.90;;;;;;5108810;28;20044;-68
2022/02/05 03:24:23;;;;;;;9.25;2.60;;;1.80;99.90;;;;;;5086997;28;20128;-69
2022/02/05 03:26:51;;;;;;;4.05;2.00;;;1.90;99.90;;;;;;5098095;28;20047;-68
2022/02/05 03:29:18;;;;;;;7.82;1.92;;;2.00;99.90;;;;;;5071773;28;20044;-69
2022/02/05 03:31:48;;;;;;;7.90;2.05;;;2.00;99.90;;;;;;5088463;28;20559;-68
2022/02/05 03:34:15;;;;;;;7.97;2.22;;;2.00;99.90;;;;;;5109461;28;20048;-69
2022/02/05 03:36:42;;;;;;;5.25;1.98;;;2.00;99.90;;;;;;5092017;28;20043;-69
2022/02/05 03:39:10;;;;;;;6.78;2.33;;;2.00;99.90;;;;;;5109917;28;20039;-69
2022/02/05 03:41:37;;;;;;;7.50;2.35;;;1.90;99.90;;;;;;5110052;28;20046;-69
2022/02/05 03:44:05;;;;;;;4.72;1.98;;;1.90;99.90;;;;;;5089270;28;20052;-69
2022/02/05 03:46:33;;;;;;;6.50;2.00;;;2.00;99.90;;;;;;5090367;28;20593;-70
2022/02/05 03:49:00;;;;;;;9.27;2.28;;;1.90;99.90;;;;;;5109759;28;20044;-69
2022/02/05 03:51:27;;;;;;;9.70;2.30;;;2.00;99.90;;;;;;5090976;28;20074;-70
2022/02/05 03:53:55;;;;;;;6.53;1.92;;;2.10;99.90;;;;;;5091308;28;20062;-69
2022/02/05 03:56:22;;;;;;;4.43;1.90;;;2.10;99.90;;;;;;5089690;28;20497;-69
2022/02/05 03:58:50;;;;;;;7.82;2.13;;;2.10;99.90;;;;;;5107235;28;20498;-69
2022/02/05 04:01:18;;;;;;;5.03;2.05;;;2.10;99.90;;;;;;5086493;28;20063;-69
2022/02/05 04:03:45;;;;;;;7.07;2.40;;;2.10;99.90;;;;;;5091685;28;20040;-69
2022/02/05 04:06:12;;;;;;;5.60;2.20;;;2.20;99.90;;;;;;5091229;28;20043;-69
2022/02/05 04:08:40;;;;;;;5.63;1.85;;;2.10;99.90;;;;;;5090267;28;20054;-69
2022/02/05 04:11:26;;;;;;;5.07;2.22;;;2.10;99.90;;;;;;5091333;28;20518;-69
2022/02/05 04:16:41;;;;;;;5.53;2.17;;;2.20;99.90;;;;;;5101334;28;20413;-69
2022/02/05 04:19:08;;;;;;;7.03;2.28;;;2.20;99.90;;;;;;5081246;28;20044;-68
2022/02/05 04:21:36;;;;;;;4.65;2.13;;;2.10;99.90;;;;;;5106968;28;20566;-68
2022/02/05 04:24:04;;;;;;;6.57;2.15;;;2.10;99.90;;;;;;5086320;28;20075;-69
2022/02/05 04:26:31;;;;;;;6.18;2.10;;;2.10;99.90;;;;;;5108388;28;20597;-69
2022/02/05 04:28:58;;;;;;;6.22;2.20;;;2.20;99.90;;;;;;5105480;28;20733;-69
2022/02/05 04:31:26;;;;;;;4.45;1.98;;;2.20;99.90;;;;;;5072453;28;20078;-69
2022/02/05 04:33:53;;;;;;;4.40;2.40;;;2.20;99.90;;;;;;5108290;28;20039;-69
2022/02/05 04:36:20;;;;;;;6.75;2.10;;;2.20;99.90;;;;;;5097602;28;20035;-68
2022/02/05 04:38:49;;;;;;;6.68;1.98;;;2.20;99.90;;;;;;5089790;28;20036;-69
2022/02/05 04:41:33;;;;;;;5.40;2.10;;;2.20;99.90;;;;;;5095440;28;20241;-69
2022/02/05 04:44:14;;;;;;;4.85;2.28;;;2.30;99.90;;;;;;5089465;28;20059;-69
2022/02/05 04:57:12;;;;;;;4.03;1.98;;;2.40;99.90;;;;;;5062401;28;20050;-69
2022/02/05 05:00:02;;;;;;;8.52;2.33;;;2.40;99.90;;;;;;5098341;28;20077;-69
2022/02/05 05:02:42;;;;;;;9.32;2.28;;;2.50;99.90;;;;;;5094475;28;20429;-69
2022/02/05 05:05:24;;;;;;;5.50;2.05;;;2.50;99.90;;;;;;5102818;28;20522;-69
2022/02/05 05:20:40;;;;;;;5.25;2.17;;;2.40;99.90;;;;;;5106041;28;20461;-68
2022/02/05 05:23:07;;;;;;;7.63;2.80;;;2.30;99.90;;;;;;5107568;28;20513;-70
2022/02/05 05:25:35;;;;;;;7.78;2.47;;;2.20;99.90;;;;;;5108688;28;20480;-69
2022/02/05 05:28:02;;;;;;;5.55;2.28;;;2.20;99.90;;;;;;5110340;28;20058;-70
2022/02/05 05:30:30;;;;;;;4.95;2.40;;;2.10;99.90;;;;;;5093186;28;20044;-70
2022/02/05 05:32:57;;;;;;;5.30;2.63;;;2.00;99.90;;;;;;5111815;28;20451;-69
2022/02/05 05:35:24;;;;;;;7.38;2.33;;;2.00;99.90;;;;;;5112957;28;20039;-69
2022/02/05 05:37:53;;;;;;;4.00;2.08;;;2.00;99.90;;;;;;5076583;28;20049;-71
2022/02/05 05:40:21;;;;;;;7.55;2.58;;;2.00;99.90;;;;;;5112026;27;20032;-70
2022/02/05 05:42:57;;;;;;;6.70;2.55;;;2.00;99.90;;;;;;5107239;28;20050;-69
2022/02/05 05:48:42;;;;;;;5.50;2.30;;;1.90;99.90;;;;;;5028686;28;20157;-69
2022/02/05 05:51:10;;;;;;;7.05;2.72;;;1.90;99.90;;;;;;5027614;28;20136;-69
2022/02/05 05:53:37;;;;;;;7.95;2.47;;;1.90;99.90;;;;;;5028623;28;20042;-69
2022/02/05 05:56:04;;;;;;;7.45;2.88;;;1.80;99.90;;;;;;5011229;28;20045;-69
2022/02/05 05:58:32;;;;;;;6.32;2.78;;;1.80;99.90;;;;;;5023267;28;20061;-70
2022/02/05 06:01:02;;;;;;;6.93;2.70;;;1.80;99.90;;;;;;5025850;28;20141;-69
2022/02/05 06:03:31;;;;;;;8.23;3.10;;;1.90;99.90;;;;;;5022626;28;20440;-68
2022/02/05 06:05:59;;;;;;;8.63;3.40;;;1.80;99.90;;;;;;5027725;28;20059;-69
2022/02/05 06:08:26;;;;;;;6.53;2.78;;;1.80;99.90;;;;;;5022824;28;20417;-69
2022/02/05 06:10:53;;;;;;;9.35;3.45;;;1.80;99.90;;;;;;5025881;28;20060;-70
2022/02/05 06:13:20;;;;;;;11.38;2.80;;;1.80;99.90;;;;;;5010000;28;20363;-67
2022/02/05 06:15:50;;;;;;;6.97;2.88;;;1.90;99.90;;;;;;5020933;28;20724;-69
2022/02/05 06:18:17;;;;;;;7.20;3.22;;;1.90;99.90;;;;;;5027345;28;20074;-69
2022/02/05 06:20:45;;;;;;;8.63;3.85;;;1.90;99.90;;;;;;5087255;28;20075;-69
2022/02/05 06:23:12;;;;;;;7.82;2.95;;;1.90;99.90;;;;;;5109866;28;20038;-69
2022/02/05 06:25:41;;;;;;;12.30;3.75;;;1.80;99.90;;;;;;5102879;28;20391;-69
2022/02/05 06:28:10;;;;;;;8.27;3.17;;;1.80;99.90;;;;;;5110856;28;20528;-69
2022/02/05 06:30:38;;;;;;;7.88;3.15;;;1.80;99.90;;;;;;5109163;28;20043;-69
2022/02/05 06:33:06;;;;;;;9.93;3.47;;;1.80;99.90;;;;;;5094264;28;20051;-70
2022/02/05 06:35:33;;;;;;;7.18;3.40;;;1.70;99.90;;;;;;5078257;28;20052;-69
2022/02/05 06:38:00;;;;;;;9.30;3.33;;;1.70;99.90;;;;;;5099652;28;20039;-69
2022/02/05 06:40:28;;;;;;;7.68;3.50;;;1.70;99.90;;;;;;5107795;28;20040;-71
2022/02/05 06:42:55;;;;;;;9.20;4.20;;;1.70;99.90;;;;;;5110685;28;20036;-68
2022/02/05 06:45:22;;;;;;;10.98;4.13;;;1.70;99.90;;;;;;5075391;28;20035;-69
2022/02/05 06:47:50;;;;;;;10.30;4.07;;;1.80;99.90;;;;;;5112392;28;20043;-69
2022/02/05 06:50:17;;;;;;;12.65;4.60;;;1.70;99.90;;;;;;5093152;28;20039;-69
2022/02/05 06:52:44;;;;;;;8.27;4.07;;;1.70;99.90;;;;;;5091139;28;20062;-68
2022/02/05 06:55:12;;;;;;;14.20;4.80;;;1.80;99.90;;;;;;5108120;28;20051;-69
2022/02/05 06:57:39;;;;;;;15.20;5.15;;;1.80;99.90;;;;;;5079245;28;20118;-69
2022/02/05 07:00:08;;;;;;;14.00;4.65;;;1.80;99.90;;;;;;5111887;28;20035;-69
2022/02/05 07:02:35;;;;;;;11.77;4.63;;;1.90;99.90;;;;;;5111412;28;20066;-69
2022/02/05 07:05:03;;;;;;;7.75;4.28;;;1.90;99.90;;;;;;5091100;28;20443;-68
2022/02/05 07:07:30;;;;;;;13.77;4.90;;;2.00;99.90;;;;;;5110965;28;20387;-69
2022/02/05 07:09:57;;;;;;;9.90;4.32;;;2.00;99.90;;;;;;5107501;28;20362;-68
2022/02/05 07:12:25;;;;;;;12.00;4.72;;;2.10;99.90;;;;;;5091107;28;20093;-69
2022/02/05 07:15:08;;;;;;;11.18;4.90;;;2.20;99.90;;;;;;5109829;28;20067;-69
2022/02/05 07:17:57;;;;;;;10.73;5.22;;;2.10;99.90;;;;;;5108460;28;20508;-68
2022/02/05 07:20:36;;;;;;;11.88;4.95;;;2.20;99.90;;;;;;5091121;28;20629;-69
2022/02/05 07:31:12;;;;;;;11.63;5.10;;;2.20;99.90;;;;;;5105572;28;20047;-68
2022/02/05 07:33:40;;;;;;;13.25;4.88;;;2.30;99.90;;;;;;5110702;28;20577;-69
2022/02/05 07:36:08;;;;;;;12.57;5.45;;;2.30;99.90;;;;;;5103535;28;20051;-67
2022/02/05 07:38:35;;;;;;;14.52;5.25;;;2.30;99.90;;;;;;5093273;28;20040;-69
2022/02/05 07:41:02;;;;;;;11.48;5.45;;;2.30;99.90;;;;;;5109593;28;20047;-69
2022/02/05 07:43:35;;;;;;;13.20;6.10;;;2.30;99.90;;;;;;5074995;28;20574;-69
2022/02/05 07:46:06;;;;;;;13.15;6.03;;;2.30;99.90;;;;;;5104209;28;20134;-69
2022/02/05 07:48:34;;;;;;;10.77;5.85;;;2.40;99.90;;;;;;5103372;28;20394;-71
2022/02/05 07:51:02;;;;;;;12.77;5.82;;;2.40;99.90;;;;;;5096705;28;20056;-70
2022/02/05 07:53:30;;;;;;;14.02;5.45;;;2.50;99.90;;;;;;5096246;28;20047;-70
2022/02/05 07:55:58;;;;;;;10.30;5.82;;;2.40;99.90;;;;;;5084695;28;20374;-70
2022/02/05 07:58:26;;;;;;;11.88;5.55;;;2.40;99.90;;;;;;5103752;28;20063;-71
2022/02/05 08:00:53;;;;;;;11.63;6.35;;;2.40;99.90;;;;;;5109221;28;20416;-69
2022/02/05 08:03:21;;;;;;;15.63;6.07;;;2.40;99.90;;;;;;5091768;28;20042;-69
2022/02/05 08:05:48;;;;;;;11.90;5.88;;;2.40;99.90;;;;;;5110013;28;20047;-69
2022/02/05 08:08:19;;;;;;;11.73;5.22;;;2.50;99.90;;;;;;5105499;28;20044;-69
2022/02/05 08:10:59;;;;;;;8.93;5.40;;;2.60;99.90;;;;;;5081998;28;20047;-68
2022/02/05 08:13:30;;;;;;;9.70;4.78;;;2.60;99.90;;;;;;5073869;28;20137;-69
2022/02/05 08:16:10;;;;;;;11.18;5.72;;;2.60;99.90;;;;;;5108540;28;20050;-70
2022/02/05 08:18:38;;;;;;;10.55;5.40;;;2.60;99.90;;;;;;5090308;28;20328;-69
2022/02/05 08:21:06;;;;;;;13.32;5.45;;;2.80;99.90;;;;;;5094056;28;20053;-69
2022/02/05 08:23:33;;;;;;;11.70;4.72;;;2.80;99.90;;;;;;5101918;28;20035;-69
2022/02/05 08:26:01;;;;;;;10.75;5.10;;;2.90;99.90;;;;;;5105769;28;20043;-69
2022/02/05 08:28:29;;;;;;;13.60;5.63;;;2.90;99.90;;;;;;5097256;28;20036;-70
2022/02/05 08:30:56;;;;;;;16.30;5.60;;;2.90;99.90;;;;;;5103264;28;20417;-69
2022/02/05 08:33:24;;;;;;;13.13;5.65;;;2.90;99.90;;;;;;5089367;28;20541;-70
2022/02/05 08:35:51;;;;;;;10.50;5.20;;;3.00;99.90;;;;;;5074126;28;20055;-68
2022/02/05 08:38:19;;;;;;;9.77;5.07;;;2.90;99.90;;;;;;5093855;28;20119;-69
2022/02/05 08:40:46;;;;;;;11.48;5.65;;;3.00;99.90;;;;;;5087007;28;20040;-68
2022/02/05 08:43:14;;;;;;;9.93;5.20;;;3.00;99.90;;;;;;5107084;28;20039;-70
2022/02/05 08:45:41;;;;;;;11.80;5.13;;;3.00;99.90;;;;;;5089413;28;20067;-70
2022/02/05 08:48:08;;;;;;;15.05;5.55;;;3.00;99.90;;;;;;5110608;28;20134;-69
2022/02/05 08:50:36;;;;;;;10.55;5.43;;;3.20;99.90;;;;;;5110897;28;20466;-71
2022/02/05 08:53:07;;;;;;;8.88;4.78;;;3.30;99.90;;;;;;5087147;28;20108;-68
2022/02/05 08:55:34;;;;;;;15.27;5.30;;;3.30;99.90;;;;;;5111081;28;20052;-69
2022/02/05 08:58:07;;;;;;;9.85;4.97;;;3.40;99.90;;;;;;5075093;28;20044;-68
2022/02/05 09:00:43;;;;;;;10.27;5.15;;;3.30;99.90;;;;;;5092153;28;20040;-69
2022/02/05 09:03:15;;;;;;;10.77;5.13;;;3.40;99.90;;;;;;5111645;28;20051;-69
2022/02/05 09:05:46;;;;;;;11.90;4.97;;;3.40;99.90;;;;;;5114204;28;20089;-68
2022/02/05 09:16:37;;;;;;;12.82;4.88;;;3.80;99.90;;;;;;5060442;28;20593;-69
2022/02/05 09:19:04;;;;;;;10.55;4.60;;;3.70;99.90;;;;;;5054496;28;20044;-68
2022/02/05 09:21:32;;;;;;;11.10;4.53;;;3.80;99.90;;;;;;5056136;28;20075;-69
2022/02/05 09:24:02;;;;;;;9.48;4.18;;;3.90;99.90;;;;;;5070283;28;20126;-69
2022/02/05 09:26:31;;;;;;;8.93;4.25;;;3.90;99.90;;;;;;5055987;28;20040;-69
2022/02/05 09:29:04;;;;;;;11.52;5.35;;;4.00;99.90;;;;;;5069522;28;20056;-68
2022/02/05 09:31:34;;;;;;;9.48;4.43;;;4.10;99.90;;;;;;5068590;28;20048;-70
2022/02/05 09:34:04;;;;;;;15.05;4.82;;;4.30;99.90;;;;;;5069361;28;20045;-69
2022/02/05 09:36:34;;;;;;;7.07;3.95;;;4.40;99.90;;;;;;5068423;28;20110;-69
2022/02/05 09:39:01;;;;;;;9.10;3.92;;;4.40;99.90;;;;;;5061808;28;20151;-70
2022/02/05 09:41:28;;;;;;;14.13;4.00;;;4.40;99.90;;;;;;5077279;28;20040;-69
2022/02/05 09:43:55;;;;;;;7.38;3.95;;;4.20;99.90;;;;;;5113331;28;20047;-69
2022/02/05 09:46:23;;;;;;;9.38;4.07;;;4.20;99.90;;;;;;5113152;28;20813;-70
2022/02/05 09:48:52;;;;;;;9.65;4.53;;;4.20;99.90;;;;;;5114533;28;20050;-69
2022/02/05 09:51:25;;;;;;;7.22;3.70;;;4.30;99.90;;;;;;5112404;28;20394;-69
2022/02/05 09:53:54;;;;;;;9.23;3.65;;;4.30;99.90;;;;;;5112884;28;20529;-69
2022/02/05 09:56:24;;;;;;;12.00;3.90;;;4.10;99.90;;;;;;5112283;28;20048;-69
2022/02/05 09:58:52;;;;;;;11.55;3.90;;;4.10;99.90;;;;;;5110931;28;20040;-69
2022/02/05 10:01:25;;;;;;;8.50;3.28;;;4.30;99.90;;;;;;5112410;28;20390;-70
2022/02/05 10:03:54;;;;;;;9.38;4.10;;;4.40;99.90;;;;;;5112180;28;20048;-70
2022/02/05 10:06:33;;;;;;;7.15;3.40;;;4.20;99.90;;;;;;5086792;28;20098;-70
2022/02/05 10:09:06;;;;;;;7.75;3.40;;;4.20;99.90;;;;;;5106787;28;20052;-70
2022/02/05 10:11:53;;;;;;;8.13;3.65;;;4.30;99.90;;;;;;5075507;28;20047;-68
2022/02/05 10:14:24;;;;;;;9.68;3.47;;;4.20;99.90;;;;;;5111221;28;20494;-70
2022/02/05 10:16:55;;;;;;;7.25;3.40;;;4.30;99.90;;;;;;5111378;28;20049;-69
2022/02/05 10:19:25;;;;;;;10.35;3.50;;;4.30;99.90;;;;;;5109780;28;20032;-68
2022/02/05 10:22:03;;;;;;;7.57;3.42;;;4.50;99.90;;;;;;5092293;28;20044;-70
2022/02/05 10:24:30;;;;;;;7.80;3.28;;;4.40;99.90;;;;;;5093694;28;20035;-70
2022/02/05 10:26:57;;;;;;;9.48;3.10;;;4.40;99.90;;;;;;5110723;28;20036;-69
2022/02/05 10:29:26;;;;;;;10.63;3.72;;;4.50;99.90;;;;;;5085216;28;20394;-70
2022/02/05 10:31:57;;;;;;;8.45;3.22;;;4.60;99.90;;;;;;5109553;28;20050;-69
2022/02/05 10:34:26;;;;;;;8.07;3.50;;;4.70;99.90;;;;;;5092959;28;20043;-70
2022/02/05 10:37:20;;;;;;;11.95;3.10;;;4.60;99.90;;;;;;5110391;28;20043;-69
2022/02/05 10:45:17;;;;;;;7.45;2.97;;;4.50;99.90;;;;;;5111138;28;20406;-68
2022/02/05 10:47:58;;;;;;;5.30;2.70;;;4.60;99.90;;;;;;5105176;28;20043;-69
2022/02/05 10:50:29;;;;;;;8.43;3.50;;;4.80;99.90;;;;;;5103047;28;20453;-69
2022/02/05 10:53:05;;;;;;;9.82;3.17;;;4.90;99.90;;;;;;5111607;28;20751;-69
2022/02/05 11:07:13;;;;;;;7.20;2.80;;;5.00;99.90;;;;;;5108151;28;20079;-69
2022/02/05 11:09:44;;;;;;;7.20;2.80;;;5.40;99.90;;;;;;5074405;28;20459;-69
2022/02/05 11:20:20;;;;;;;6.60;2.83;;;5.30;99.90;;;;;;5089601;28;20044;-69
2022/02/05 11:22:49;;;;;;;6.75;2.83;;;5.40;99.90;;;;;;5090724;28;20048;-70
2022/02/05 11:25:19;;;;;;;9.88;2.72;;;5.40;99.90;;;;;;5105927;28;20048;-70
2022/02/05 11:27:50;;;;;;;10.55;2.70;;;5.60;99.90;;;;;;5106174;28;20555;-69
2022/02/05 11:30:43;;;;;;;11.85;2.78;;;5.50;99.90;;;;;;5109030;28;20044;-70
2022/02/05 11:33:29;;;;;;;6.88;2.60;;;5.70;99.90;;;;;;5091642;28;20048;-69
2022/02/05 11:38:57;;;;;;;6.35;2.70;;;5.30;99.90;;;;;;5110424;28;20385;-70
2022/02/05 11:41:31;;;;;;;5.80;2.60;;;5.40;99.90;;;;;;5108945;28;20590;-70
2022/02/05 11:44:23;;;;;;;7.20;3.08;;;5.40;99.90;;;;;;5092600;28;20054;-69
2022/02/05 11:47:06;;;;;;;4.55;2.28;;;5.30;99.90;;;;;;5092801;28;20370;-70
2022/02/05 11:50:02;;;;;;;6.50;2.80;;;5.40;99.90;;;;;;5110257;28;20050;-69
2022/02/05 11:52:36;;;;;;;8.45;2.35;;;5.50;99.90;;;;;;5081948;28;20085;-69
2022/02/05 11:55:04;;;;;;;9.10;2.63;;;5.90;99.90;;;;;;5089417;28;20047;-69
2022/02/05 11:57:43;;;;;;;11.40;2.80;;;6.20;99.90;;;;;;5109385;28;20046;-69
2022/02/05 12:00:12;;;;;;;7.43;2.38;;;7.80;99.90;;;;;;5111325;28;20044;-69
2022/02/05 12:02:45;;;;;;;7.35;2.60;;;10.10;99.90;;;;;;5081061;28;20112;-70
2022/02/05 12:05:18;;;;;;;8.52;2.13;;;11.80;99.90;;;;;;5106462;28;20048;-69
2022/02/05 12:08:03;;;;;;;7.45;2.05;;;11.10;99.90;;;;;;5107341;28;20046;-70
2022/02/05 12:10:46;;;;;;;8.07;2.30;;;8.80;99.90;;;;;;5091614;28;20043;-70
2022/02/05 12:13:16;;;;;;;4.50;1.88;;;7.50;99.90;;;;;;5099323;28;20062;-69
2022/02/05 12:15:46;;;;;;;6.65;2.20;;;7.10;99.90;;;;;;5089679;28;20912;-69
2022/02/05 12:18:18;;;;;;;3.65;1.85;;;7.10;99.90;;;;;;5081391;28;20553;-69
2022/02/05 12:20:53;;;;;;;3.70;1.83;;;6.90;99.90;;;;;;5085130;28;20087;-70
2022/02/05 12:26:07;;;;;;;7.03;2.25;;;7.00;99.90;;;;;;5098401;28;20409;-68
2022/02/05 12:28:39;;;;;;;5.97;2.15;;;6.90;99.90;;;;;;5099595;28;20047;-68
2022/02/05 12:31:21;;;;;;;7.85;2.30;;;6.60;99.90;;;;;;5105163;28;20043;-70
2022/02/05 12:33:59;;;;;;;6.68;1.90;;;6.50;99.90;;;;;;5110171;28;20503;-69
2022/02/05 12:36:43;;;;;;;6.82;1.77;;;6.50;99.90;;;;;;5109137;28;20040;-69
2022/02/05 12:39:13;;;;;;;6.47;1.85;;;6.60;99.90;;;;;;5090366;28;20076;-70
2022/02/05 12:42:00;;;;;;;3.90;1.90;;;9.20;99.90;;;;;;5107308;28;20479;-70
2022/02/05 12:44:30;;;;;;;6.43;1.60;;;9.60;99.90;;;;;;5073525;28;20486;-70
2022/02/05 12:47:07;;;;;;;7.30;1.98;;;11.60;99.90;;;;;;5107572;28;20051;-68
2022/02/05 12:52:07;;;;;;;6.40;1.60;;;11.50;99.90;;;;;;5087665;28;20051;-68
2022/02/05 12:54:42;;;;;;;6.60;1.85;;;11.50;99.90;;;;;;5109343;28;20048;-70
2022/02/05 12:57:17;;;;;;;4.72;1.88;;;10.70;99.90;;;;;;5084464;28;20617;-70
2022/02/05 12:59:45;;;;;;;7.40;1.92;;;10.30;99.90;;;;;;5090547;28;20058;-69
2022/02/05 13:02:15;;;;;;;4.25;1.45;;;10.20;99.90;;;;;;5091797;28;20440;-68
2022/02/05 13:04:46;;;;;;;7.75;1.92;;;9.40;99.90;;;;;;5109478;28;20055;-69
2022/02/05 13:07:18;;;;;;;5.50;2.08;;;10.00;99.90;;;;;;5107264;28;20032;-69
2022/02/05 13:10:03;;;;;;;7.22;1.83;;;9.30;99.90;;;;;;5097561;28;20583;-68
2022/02/05 13:12:36;;;;;;;5.13;1.80;;;9.20;99.90;;;;;;5110135;28;20047;-68
2022/02/05 13:15:24;;;;;;;8.27;1.80;;;8.90;99.90;;;;;;5091636;28;20067;-70
2022/02/05 13:26:27;;;;;;;5.38;1.77;;;8.20;99.90;;;;;;5104363;28;20035;-67
2022/02/05 13:34:06;;;;;;;4.38;1.60;;;8.10;99.90;;;;;;5108263;28;20051;-69
2022/02/05 13:36:40;;;;;;;4.32;1.70;;;7.60;99.90;;;;;;5108684;28;20134;-68
2022/02/05 13:42:09;;;;;;;;;;;7.00;99.90;;;;;;5090563;28;20130;-69
2022/02/05 13:44:42;;;;;;;7.45;1.83;;;7.30;99.90;;;;;;5108951;28;19927;-70
2022/02/05 13:47:12;;;;;;;4.65;1.52;;;9.10;99.90;;;;;;5089534;28;20046;-70
2022/02/05 13:49:39;;;;;;;7.03;1.65;;;11.50;99.90;;;;;;5091492;28;20059;-69
2022/02/05 13:52:12;;;;;;;2.75;1.25;;;12.00;99.90;;;;;;5092586;28;20573;-72
2022/02/05 13:54:43;;;;;;;5.82;1.15;;;12.00;99.90;;;;;;5094196;28;20091;-70
2022/02/05 13:57:12;;;;;;;3.90;1.55;;;12.20;99.90;;;;;;5110480;28;20402;-68
2022/02/05 13:59:40;;;;;;;5.05;1.90;;;11.30;99.90;;;;;;5083496;28;20077;-68
2022/02/05 14:02:19;;;;;;;7.50;1.70;;;10.20;99.90;;;;;;5085858;28;20044;-69
2022/02/05 14:05:12;;;;;;;5.75;1.73;;;9.30;99.90;;;;;;5075984;28;20159;-69
2022/02/05 14:07:42;;;;;;;4.97;1.73;;;10.30;99.90;;;;;;5110990;28;20050;-68
2022/02/05 14:10:16;;;;;;;5.90;1.70;;;12.10;99.90;;;;;;5111292;28;20047;-69
2022/02/05 14:12:55;;;;;;;4.72;1.52;;;11.60;99.90;;;;;;5081277;28;20052;-70
2022/02/05 14:15:25;;;;;;;3.28;1.23;;;11.80;99.90;;;;;;5094831;28;20079;-69
2022/02/05 14:18:12;;;;;;;3.50;1.48;;;13.20;99.90;;;;;;5108062;28;20406;-68
2022/02/05 14:20:49;;;;;;;5.88;1.45;;;14.10;99.90;;;;;;5079829;28;20490;-69
2022/02/05 14:23:19;;;;;;;4.72;1.50;;;14.90;99.90;;;;;;5089080;28;20036;-71
2022/02/05 14:28:51;;;;;;;5.55;1.75;;;14.80;99.90;;;;;;5091202;28;20043;-71
2022/02/05 14:42:19;;;;;;;5.43;1.90;;;9.10;99.90;;;;;;5100432;28;20085;-68
2022/02/05 14:44:48;;;;;;;8.32;1.60;;;7.80;99.90;;;;;;5082634;28;20044;-70
2022/02/05 14:47:16;;;;;;;8.95;1.67;;;7.80;99.90;;;;;;5094849;28;20036;-69
2022/02/05 14:49:43;;;;;;;4.03;1.40;;;9.00;99.90;;;;;;5091694;28;20561;-69
2022/02/05 14:52:14;;;;;;;7.70;1.80;;;10.40;99.90;;;;;;5093566;28;20044;-69
2022/02/05 14:54:45;;;;;;;5.20;2.00;;;12.00;99.90;;;;;;5098212;28;20818;-69
2022/02/05 14:57:14;;;;;;;6.32;1.80;;;13.60;99.90;;;;;;5097648;28;20043;-69
2022/02/05 14:59:42;;;;;;;7.97;1.80;;;13.80;99.90;;;;;;5084267;28;20115;-69
2022/02/05 15:02:11;;;;;;;4.60;1.52;;;13.40;99.90;;;;;;5104233;28;20556;-70
2022/02/05 15:04:40;;;;;;;7.75;2.30;;;12.50;99.90;;;;;;5115592;28;20035;-68
2022/02/05 15:07:16;;;;;;;7.70;1.70;;;12.70;99.90;;;;;;5094037;28;20074;-68
2022/02/05 15:09:43;;;;;;;5.55;1.42;;;11.40;99.90;;;;;;5110822;28;20047;-68
2022/02/05 15:12:10;;;;;;;5.13;2.08;;;10.00;99.90;;;;;;5111207;28;20051;-69
2022/02/05 15:14:40;;;;;;;5.45;1.50;;;9.80;99.90;;;;;;5092164;28;20049;-69
2022/02/05 15:17:08;;;;;;;5.90;1.52;;;11.10;99.90;;;;;;5102025;28;20040;-70
2022/02/05 15:19:36;;;;;;;7.28;1.65;;;11.80;99.90;;;;;;5091754;28;20131;-69
2022/02/05 15:22:03;;;;;;;8.25;2.33;;;11.00;99.90;;;;;;5109897;28;20486;-70
2022/02/05 15:24:30;;;;;;;7.60;2.05;;;9.30;99.90;;;;;;5108499;28;20150;-70
2022/02/05 15:26:58;;;;;;;6.15;1.83;;;9.20;99.90;;;;;;5064634;28;20055;-70
2022/02/05 15:29:26;;;;;;;5.72;2.08;;;9.80;99.90;;;;;;5106275;28;20040;-70
2022/02/05 15:31:53;;;;;;;4.80;1.65;;;11.60;99.90;;;;;;5110635;28;20073;-71
2022/02/05 15:34:21;;;;;;;6.22;2.00;;;12.30;99.90;;;;;;5109009;28;20043;-69
2022/02/05 15:36:56;;;;;;;5.15;1.40;;;12.90;99.90;;;;;;5105040;28;20057;-70
2022/02/05 15:45:12;;;;;;;4.25;1.25;;;14.00;99.90;;;;;;5030335;28;19921;-70
2022/02/05 15:47:40;;;;;;;4.47;1.60;;;13.30;99.90;;;;;;5044774;28;20060;-70
2022/02/05 15:50:11;;;;;;;4.45;1.70;;;12.50;99.90;;;;;;5047058;28;20045;-71
2022/02/05 15:52:38;;;;;;;6.20;1.70;;;11.70;99.90;;;;;;5044969;28;20057;-69
2022/02/05 15:55:06;;;;;;;4.13;1.52;;;11.20;99.90;;;;;;5047785;28;20439;-71
2022/02/05 15:57:46;;;;;;;5.18;1.73;;;11.30;99.90;;;;;;5029839;28;20060;-69
2022/02/05 16:00:27;;;;;;;5.80;1.80;;;10.60;99.90;;;;;;5031099;28;20492;-69
2022/02/05 16:02:55;;;;;;;6.68;1.80;;;10.10;99.90;;;;;;5047511;28;20079;-70
2022/02/05 16:05:22;;;;;;;7.65;1.67;;;9.40;99.90;;;;;;5047302;28;20041;-69
2022/02/05 16:07:49;;;;;;;6.10;1.60;;;8.80;99.90;;;;;;5031662;28;20045;-69
2022/02/05 16:10:17;;;;;;;6.60;2.10;;;7.90;99.90;;;;;;5047611;28;20056;-69
2022/02/05 16:12:47;;;;;;;6.80;2.25;;;7.20;99.90;;;;;;5047826;28;20057;-69
2022/02/05 16:15:16;;;;;;;7.32;2.10;;;6.90;99.90;;;;;;5013634;28;20541;-70
2022/02/05 16:17:45;;;;;;;3.72;1.77;;;6.40;99.90;;;;;;5097026;28;20042;-70
2022/02/05 16:20:14;;;;;;;4.30;1.80;;;6.00;99.90;;;;;;5091280;28;20044;-70
2022/02/05 16:22:42;;;;;;;7.68;2.10;;;5.70;99.90;;;;;;5099721;28;20412;-70
2022/02/05 16:25:12;;;;;;;8.20;2.28;;;5.30;99.90;;;;;;5093634;28;20084;-70
2022/02/05 16:27:41;;;;;;;6.97;1.70;;;5.20;99.90;;;;;;5061123;28;20074;-69
2022/02/05 16:30:10;;;;;;;5.30;2.10;;;5.00;99.90;;;;;;5112240;28;20059;-70
2022/02/05 16:32:38;;;;;;;5.85;2.00;;;5.00;99.90;;;;;;5111130;28;20504;-70